Cuchillo, New Mexico
Current Conditions -  °F | °C
As of 2:53 AM on Thursday 23 Oct 2014 (Local Time) from KTCS Reporting Station
Clear Clear  
Wind Chill: 56°   Ceiling: Unl
Heat Index: 56°   Visibility: 10mi
Dew Point: 48°   Wind: 7mph
Humidity: 75%   Direction: 260°W
Pressure: 30.18"   Gusts: NA
Location:  33.1866°N, 106.845°W
Report Text: KTCS 230853Z AUTO 26006KT 10SM CLR 13/09 A3018 RMK AO2 SLP157 T01330089 TSNO $
Loading
Personal Weather Stations






























Interactive Weather Map
Tropical Storm Tracking
New forecast layout! Learn more

10-Day Weather Forecast

Advertisements
Track Severe Weather on mobile